Time;durP1;ratioP1;P1;durP2;ratioP2;P2;SDS_P1;SDS_P2;PMS_P1;PMS_P2;Temp;Humidity;BMP_temperature;BMP_pressure;BME280_temperature;BME280_humidity;BME280_pressure;Samples;Min_cycle;Max_cycle;Signal;HPM_P1;HPM_P2
2023/09/03 00:01:32;;;;;;;4.55;3.90;;;17.10;86.40;;;;;;5033221;28;20029;-83
2023/09/03 00:03:58;;;;;;;3.78;3.38;;;17.10;86.30;;;;;;5052998;28;20029;-82
2023/09/03 00:06:23;;;;;;;3.92;3.53;;;17.10;86.40;;;;;;5050790;28;20369;-83
2023/09/03 00:08:49;;;;;;;4.50;3.45;;;17.10;86.40;;;;;;5052221;28;20027;-83
2023/09/03 00:11:18;;;;;;;4.75;3.42;;;17.10;86.50;;;;;;5051664;28;20120;-83
2023/09/03 00:13:44;;;;;;;5.53;3.65;;;17.10;86.40;;;;;;5050183;28;20033;-82
2023/09/03 00:16:10;;;;;;;3.95;3.53;;;17.10;86.30;;;;;;5051931;28;20455;-82
2023/09/03 00:18:38;;;;;;;4.80;3.80;;;17.10;86.20;;;;;;5050257;28;20086;-82
2023/09/03 00:21:05;;;;;;;4.32;3.78;;;17.10;86.20;;;;;;5033144;28;20035;-82
2023/09/03 00:23:34;;;;;;;5.10;4.25;;;17.10;86.30;;;;;;5051673;28;20100;-83
2023/09/03 00:26:00;;;;;;;4.95;4.30;;;17.10;86.40;;;;;;5051427;28;20032;-83
2023/09/03 00:28:27;;;;;;;5.78;4.05;;;17.00;86.40;;;;;;5041403;28;20052;-83
2023/09/03 00:31:20;;;;;;;4.03;3.47;;;17.00;86.50;;;;;;5050473;28;20100;-83
2023/09/03 00:33:45;;;;;;;5.68;4.32;;;17.00;86.50;;;;;;5029164;28;20563;-82
2023/09/03 00:36:13;;;;;;;5.30;4.38;;;17.00;86.40;;;;;;5051936;28;20029;-83
2023/09/03 00:38:39;;;;;;;5.13;4.20;;;17.00;86.50;;;;;;5048960;28;20267;-82
2023/09/03 00:41:04;;;;;;;4.80;4.10;;;17.00;86.60;;;;;;5050431;28;20037;-82
2023/09/03 00:43:31;;;;;;;7.50;5.70;;;17.00;86.60;;;;;;5050177;28;20066;-82
2023/09/03 00:46:00;;;;;;;7.90;5.90;;;16.90;86.50;;;;;;5051728;28;20044;-83
2023/09/03 00:48:28;;;;;;;6.82;5.53;;;16.80;86.80;;;;;;5048722;28;20535;-82
2023/09/03 00:50:56;;;;;;;6.00;4.70;;;16.80;87.00;;;;;;5051877;28;20027;-83
2023/09/03 00:53:24;;;;;;;6.22;5.20;;;16.80;87.10;;;;;;5051662;28;20036;-83
2023/09/03 00:55:50;;;;;;;6.78;5.22;;;16.80;87.30;;;;;;5050414;28;20056;-83
2023/09/03 00:58:16;;;;;;;5.93;4.70;;;16.70;88.00;;;;;;5050779;28;20064;-83
2023/09/03 01:00:41;;;;;;;7.88;5.57;;;16.70;87.50;;;;;;5042254;28;20156;-83
2023/09/03 01:03:07;;;;;;;8.75;5.82;;;16.70;87.70;;;;;;5048843;28;20048;-83
2023/09/03 01:05:33;;;;;;;6.25;4.88;;;16.60;88.00;;;;;;5048862;28;20021;-84
2023/09/03 01:08:00;;;;;;;5.15;4.15;;;16.60;88.10;;;;;;5048656;28;20128;-83
2023/09/03 01:10:48;;;;;;;5.30;4.22;;;16.60;88.00;;;;;;5051100;28;20021;-84
2023/09/03 01:13:37;;;;;;;4.85;4.15;;;16.60;88.00;;;;;;5050131;28;20072;-84
2023/09/03 01:16:09;;;;;;;5.57;4.50;;;16.70;88.00;;;;;;5037960;28;20025;-83
2023/09/03 01:18:38;;;;;;;5.32;4.22;;;16.60;88.10;;;;;;5049030;28;20131;-84
2023/09/03 01:21:27;;;;;;;4.80;4.18;;;16.60;88.30;;;;;;5032412;28;20531;-83
2023/09/03 01:24:11;;;;;;;5.38;4.13;;;16.60;88.40;;;;;;5033002;28;20439;-83
2023/09/03 01:26:54;;;;;;;6.70;4.57;;;16.60;88.60;;;;;;5048406;28;20025;-83
2023/09/03 01:29:21;;;;;;;7.13;5.07;;;16.60;89.30;;;;;;5042438;28;20104;-82
2023/09/03 01:31:48;;;;;;;6.72;4.57;;;16.60;88.60;;;;;;5051356;28;20541;-83
2023/09/03 01:34:16;;;;;;;6.53;4.72;;;16.70;88.60;;;;;;5034092;28;20303;-82
2023/09/03 01:36:43;;;;;;;6.80;5.10;;;16.70;88.60;;;;;;5050733;28;20194;-82
2023/09/03 01:39:08;;;;;;;6.70;5.00;;;16.70;88.70;;;;;;5051406;28;20258;-83
2023/09/03 01:41:36;;;;;;;7.03;5.65;;;16.60;88.70;;;;;;5050060;28;20379;-83
2023/09/03 01:44:02;;;;;;;6.53;5.45;;;16.60;89.10;;;;;;5048627;28;20020;-83
2023/09/03 01:46:50;;;;;;;6.85;5.43;;;16.60;89.30;;;;;;5032902;28;20505;-82
2023/09/03 01:49:47;;;;;;;6.60;5.63;;;16.60;89.40;;;;;;5020095;28;20025;-83
2023/09/03 01:52:27;;;;;;;6.88;5.47;;;16.60;89.30;;;;;;5050114;28;20021;-83
2023/09/03 01:54:57;;;;;;;6.50;5.20;;;16.60;89.20;;;;;;5050233;28;20025;-82
2023/09/03 01:57:30;;;;;;;8.80;6.07;;;16.60;89.20;;;;;;5050638;28;20058;-83
2023/09/03 02:00:00;;;;;;;7.65;5.75;;;16.60;89.20;;;;;;5043248;28;20102;-83
2023/09/03 02:02:27;;;;;;;6.10;4.72;;;16.60;89.20;;;;;;5048877;28;20029;-83
2023/09/03 02:04:54;;;;;;;6.63;5.45;;;16.60;89.20;;;;;;5050384;28;20116;-83
2023/09/03 02:07:20;;;;;;;6.72;4.88;;;16.60;89.20;;;;;;5036780;28;20036;-83
2023/09/03 02:09:46;;;;;;;7.45;5.82;;;16.60;89.30;;;;;;5048412;28;20017;-83
2023/09/03 02:12:11;;;;;;;6.72;5.82;;;16.60;89.30;;;;;;5048506;28;20116;-82
2023/09/03 02:14:37;;;;;;;8.23;6.40;;;16.60;89.30;;;;;;5030407;28;20044;-83
2023/09/03 02:17:02;;;;;;;9.30;7.00;;;16.50;89.30;;;;;;5047226;28;20029;-83
2023/09/03 02:19:28;;;;;;;7.68;5.63;;;16.50;89.90;;;;;;5047517;28;20032;-82
2023/09/03 02:21:53;;;;;;;7.05;5.78;;;16.40;90.10;;;;;;5046640;28;20033;-82
2023/09/03 02:24:19;;;;;;;10.85;8.40;;;16.50;90.10;;;;;;5046244;28;20029;-82
2023/09/03 02:26:46;;;;;;;10.85;8.93;;;16.40;90.20;;;;;;5048892;28;20120;-83
2023/09/03 02:29:12;;;;;;;8.13;6.85;;;16.30;90.60;;;;;;5049002;28;20024;-83
2023/09/03 02:31:38;;;;;;;8.60;6.63;;;16.20;90.60;;;;;;5042099;28;20104;-82
2023/09/03 02:34:05;;;;;;;6.82;5.80;;;16.30;90.60;;;;;;5048583;28;20113;-82
2023/09/03 02:36:31;;;;;;;8.75;7.55;;;16.30;90.50;;;;;;5048339;28;20096;-83
2023/09/03 02:39:15;;;;;;;9.48;7.35;;;16.30;90.60;;;;;;5048384;28;20033;-82
2023/09/03 02:41:41;;;;;;;8.48;6.30;;;16.20;90.80;;;;;;5062739;28;20025;-83
2023/09/03 02:44:09;;;;;;;7.00;6.03;;;16.30;90.80;;;;;;5047146;28;20036;-83
2023/09/03 02:46:35;;;;;;;7.57;5.78;;;16.30;90.80;;;;;;5031262;28;20440;-83
2023/09/03 02:49:01;;;;;;;7.95;5.80;;;16.30;90.80;;;;;;5047968;28;20480;-83
2023/09/03 02:51:27;;;;;;;6.18;5.10;;;16.30;90.70;;;;;;5063739;28;20125;-82
2023/09/03 02:53:54;;;;;;;6.63;5.30;;;16.40;90.70;;;;;;5050053;28;20120;-83
2023/09/03 02:56:23;;;;;;;6.30;5.03;;;16.40;90.70;;;;;;5046956;28;20074;-83
2023/09/03 02:58:49;;;;;;;5.30;4.20;;;16.40;90.70;;;;;;5047241;28;20040;-83
2023/09/03 03:01:17;;;;;;;5.22;4.65;;;16.40;90.60;;;;;;5046478;28;20032;-83
2023/09/03 03:03:44;;;;;;;6.35;4.57;;;16.50;90.60;;;;;;5049582;28;20058;-83
2023/09/03 03:06:10;;;;;;;5.57;4.68;;;16.50;90.50;;;;;;5030422;28;20025;-83
2023/09/03 03:08:35;;;;;;;5.38;4.72;;;16.50;90.50;;;;;;5030290;28;20032;-83
2023/09/03 03:11:19;;;;;;;5.18;3.95;;;16.50;90.50;;;;;;5048382;28;20021;-82
2023/09/03 03:13:46;;;;;;;5.68;4.35;;;16.50;90.40;;;;;;5046179;28;20075;-83
2023/09/03 03:16:14;;;;;;;5.32;4.07;;;16.60;90.40;;;;;;5048933;28;20033;-83
2023/09/03 03:18:42;;;;;;;4.63;3.78;;;16.60;90.40;;;;;;5047812;28;20475;-82
2023/09/03 03:21:10;;;;;;;5.72;3.97;;;16.50;90.30;;;;;;5047052;28;20036;-83
2023/09/03 03:23:36;;;;;;;6.43;4.75;;;16.50;90.30;;;;;;5048783;28;20017;-83
2023/09/03 03:26:03;;;;;;;5.20;4.43;;;16.50;90.30;;;;;;5049370;28;20411;-83
2023/09/03 03:28:31;;;;;;;5.68;3.95;;;16.40;90.20;;;;;;5036101;28;20028;-83
2023/09/03 03:30:59;;;;;;;4.28;3.50;;;16.40;90.30;;;;;;5054957;28;20498;-84
2023/09/03 03:33:26;;;;;;;5.95;4.63;;;16.30;90.40;;;;;;5050662;28;20032;-83
2023/09/03 03:35:51;;;;;;;5.18;4.10;;;16.40;90.40;;;;;;5053926;28;20029;-82
2023/09/03 03:38:17;;;;;;;4.45;3.80;;;16.30;90.30;;;;;;5054288;28;20040;-83
2023/09/03 03:40:42;;;;;;;4.55;3.85;;;16.30;90.30;;;;;;5053432;28;20108;-83
2023/09/03 03:43:08;;;;;;;6.32;4.53;;;16.20;90.30;;;;;;5053156;28;20386;-83
2023/09/03 03:45:34;;;;;;;7.00;4.28;;;16.20;90.30;;;;;;5054220;28;20369;-82
2023/09/03 03:47:59;;;;;;;5.88;4.28;;;16.20;90.30;;;;;;5053975;28;20056;-82
2023/09/03 03:50:28;;;;;;;4.93;4.28;;;16.20;90.30;;;;;;5068390;28;20082;-82
2023/09/03 03:52:53;;;;;;;6.97;4.68;;;16.10;90.30;;;;;;5052691;28;20123;-82
2023/09/03 03:55:19;;;;;;;4.90;4.20;;;16.10;90.30;;;;;;5053476;28;20051;-80
2023/09/03 03:57:45;;;;;;;5.20;4.18;;;16.10;90.30;;;;;;5051465;28;20475;-80
2023/09/03 04:00:10;;;;;;;4.88;4.30;;;16.00;90.30;;;;;;5051587;28;20542;-80
2023/09/03 04:02:36;;;;;;;4.82;3.85;;;16.00;90.30;;;;;;5051307;28;20041;-80
2023/09/03 04:05:02;;;;;;;4.82;3.90;;;15.90;90.30;;;;;;5052073;28;20049;-80
2023/09/03 04:07:27;;;;;;;4.80;4.00;;;15.90;90.30;;;;;;5049677;28;20040;-81
2023/09/03 04:09:54;;;;;;;5.93;4.65;;;15.90;90.30;;;;;;5049563;28;20017;-81
2023/09/03 04:12:19;;;;;;;6.00;4.60;;;15.90;90.40;;;;;;5050951;28;20119;-81
2023/09/03 04:14:45;;;;;;;7.15;4.80;;;15.90;90.40;;;;;;5051524;28;20469;-81
2023/09/03 04:17:10;;;;;;;6.20;4.47;;;15.90;90.40;;;;;;5051479;28;20037;-81
2023/09/03 04:19:37;;;;;;;5.93;4.40;;;15.80;90.40;;;;;;5051954;28;20028;-81
2023/09/03 04:22:03;;;;;;;6.57;5.13;;;15.80;90.40;;;;;;5049393;28;20021;-80
2023/09/03 04:24:28;;;;;;;7.28;5.15;;;15.80;90.40;;;;;;5050216;28;20028;-80
2023/09/03 04:26:54;;;;;;;6.30;4.75;;;15.80;90.50;;;;;;5049968;28;20029;-80
2023/09/03 04:29:19;;;;;;;6.28;4.93;;;15.80;90.50;;;;;;5030493;28;20017;-81
2023/09/03 04:31:45;;;;;;;5.78;4.55;;;15.80;90.50;;;;;;5050822;28;20037;-81
2023/09/03 04:34:12;;;;;;;5.78;4.63;;;15.80;90.50;;;;;;5050773;28;20020;-80
2023/09/03 04:36:38;;;;;;;7.05;5.55;;;15.80;90.50;;;;;;5031563;28;20032;-80
2023/09/03 04:39:04;;;;;;;6.60;5.22;;;15.80;90.50;;;;;;5050200;28;20204;-80
2023/09/03 04:41:29;;;;;;;7.50;4.78;;;15.80;90.50;;;;;;5049205;28;20017;-80
2023/09/03 04:44:10;;;;;;;5.78;4.50;;;15.80;90.60;;;;;;5032051;28;20044;-81
2023/09/03 04:46:35;;;;;;;7.38;4.97;;;15.80;90.60;;;;;;5044576;28;20024;-80
2023/09/03 04:49:01;;;;;;;5.18;4.47;;;15.80;90.60;;;;;;5050776;28;20421;-81
2023/09/03 04:51:27;;;;;;;5.63;4.75;;;15.80;90.60;;;;;;5030901;28;20025;-81
2023/09/03 04:53:53;;;;;;;6.07;4.25;;;15.80;90.70;;;;;;5050919;28;20522;-81
2023/09/03 04:56:18;;;;;;;5.47;4.07;;;15.80;90.60;;;;;;5050588;28;20032;-80
2023/09/03 04:58:44;;;;;;;6.72;5.15;;;15.80;90.60;;;;;;5050620;28;20033;-81
2023/09/03 05:01:17;;;;;;;5.68;4.65;;;15.80;90.60;;;;;;5033452;28;20057;-81
2023/09/03 05:03:43;;;;;;;6.80;5.85;;;15.80;90.60;;;;;;5049008;28;20048;-81
2023/09/03 05:06:16;;;;;;;8.40;5.70;;;15.80;90.60;;;;;;5051228;28;20017;-81
2023/09/03 05:08:42;;;;;;;6.15;4.97;;;15.80;90.60;;;;;;5050562;28;20033;-81
2023/09/03 05:11:12;;;;;;;7.50;5.70;;;15.90;90.60;;;;;;5049137;28;20056;-81
2023/09/03 05:13:39;;;;;;;7.55;5.75;;;15.90;90.50;;;;;;5048009;28;20032;-81
2023/09/03 05:16:04;;;;;;;6.35;5.10;;;15.90;90.50;;;;;;5050213;28;20033;-81
2023/09/03 05:18:31;;;;;;;6.25;5.28;;;16.00;90.50;;;;;;5049357;28;20503;-81
2023/09/03 05:20:56;;;;;;;7.53;5.57;;;16.00;90.50;;;;;;5050327;28;20063;-81
2023/09/03 05:23:22;;;;;;;6.72;5.80;;;16.00;90.50;;;;;;5034144;28;20115;-80
2023/09/03 05:25:47;;;;;;;7.35;6.20;;;16.10;90.50;;;;;;5056295;28;20063;-81
2023/09/03 05:28:13;;;;;;;7.40;6.28;;;16.10;90.40;;;;;;5036082;28;20040;-81
2023/09/03 05:30:39;;;;;;;7.97;6.53;;;16.20;90.40;;;;;;5031209;28;20064;-80
2023/09/03 05:33:04;;;;;;;6.40;5.53;;;16.30;90.30;;;;;;5048313;28;20067;-80
2023/09/03 05:35:30;;;;;;;7.53;6.00;;;16.40;90.20;;;;;;5032820;28;20037;-81
2023/09/03 05:37:55;;;;;;;6.60;5.43;;;16.40;90.20;;;;;;5049983;28;20033;-81
2023/09/03 05:40:21;;;;;;;7.78;5.30;;;16.40;90.20;;;;;;5048865;28;20031;-80
2023/09/03 05:42:48;;;;;;;5.68;4.72;;;16.40;90.20;;;;;;5049016;28;20120;-81
2023/09/03 05:45:14;;;;;;;6.65;5.15;;;16.50;90.20;;;;;;5049399;28;20021;-81
2023/09/03 05:47:39;;;;;;;7.13;5.63;;;16.50;90.10;;;;;;5048942;28;20021;-79
2023/09/03 05:50:06;;;;;;;7.50;5.95;;;16.60;90.00;;;;;;5049772;28;20029;-82
2023/09/03 05:52:31;;;;;;;7.97;5.90;;;16.70;89.90;;;;;;5047468;28;20108;-79
2023/09/03 05:54:57;;;;;;;7.20;6.07;;;16.80;89.80;;;;;;5049611;28;20168;-79
2023/09/03 05:57:23;;;;;;;7.25;5.85;;;16.90;89.70;;;;;;5035784;28;20079;-79
2023/09/03 05:59:52;;;;;;;6.97;6.13;;;17.00;89.50;;;;;;5043369;28;20052;-79
2023/09/03 06:02:18;;;;;;;7.85;6.20;;;17.20;89.30;;;;;;5044632;28;20028;-79
2023/09/03 06:04:44;;;;;;;8.48;6.82;;;17.60;88.70;;;;;;5051586;28;20031;-79
2023/09/03 06:07:10;;;;;;;7.80;6.03;;;17.90;87.70;;;;;;5044345;28;20025;-79
2023/09/03 06:09:37;;;;;;;6.80;5.18;;;18.20;86.70;;;;;;5032751;28;20025;-79
2023/09/03 06:12:03;;;;;;;7.03;5.90;;;18.40;85.90;;;;;;5048529;28;20112;-79
2023/09/03 06:14:29;;;;;;;5.80;4.93;;;18.50;85.30;;;;;;5048543;28;20113;-79
2023/09/03 06:16:54;;;;;;;7.53;4.93;;;18.60;84.90;;;;;;5045857;28;20382;-79
2023/09/03 06:19:22;;;;;;;7.30;4.90;;;18.70;84.60;;;;;;5052001;28;20044;-79
2023/09/03 06:21:48;;;;;;;5.55;4.88;;;18.70;84.30;;;;;;5049410;28;20029;-79
2023/09/03 06:24:15;;;;;;;5.85;4.32;;;18.70;84.10;;;;;;5030637;28;20029;-79
2023/09/03 06:26:41;;;;;;;5.35;4.57;;;18.70;83.90;;;;;;5050092;28;20025;-79
2023/09/03 06:29:07;;;;;;;6.30;5.22;;;19.00;83.50;;;;;;5049648;28;20021;-79
2023/09/03 06:31:32;;;;;;;5.22;4.32;;;19.60;82.50;;;;;;5050050;28;20055;-80
2023/09/03 06:33:58;;;;;;;7.03;4.95;;;20.20;80.80;;;;;;5032015;28;20032;-79
2023/09/03 06:36:25;;;;;;;5.97;4.40;;;20.50;79.30;;;;;;5048558;28;20078;-79
2023/09/03 06:38:51;;;;;;;6.93;4.93;;;20.50;78.70;;;;;;5036648;28;20113;-79
2023/09/03 06:41:17;;;;;;;5.20;4.05;;;20.40;78.60;;;;;;5032024;28;20102;-79
2023/09/03 06:43:43;;;;;;;5.43;3.65;;;20.40;78.80;;;;;;5049609;28;20037;-79
2023/09/03 06:46:08;;;;;;;5.88;4.47;;;20.50;78.70;;;;;;5049670;28;20037;-80
2023/09/03 06:48:34;;;;;;;6.13;4.40;;;20.80;78.40;;;;;;5031839;28;20024;-79
2023/09/03 06:51:00;;;;;;;4.82;3.85;;;20.80;78.00;;;;;;5031584;28;20024;-79
2023/09/03 06:53:26;;;;;;;6.82;4.50;;;20.90;78.00;;;;;;5030563;28;20487;-79
2023/09/03 06:55:52;;;;;;;5.05;4.20;;;20.80;77.70;;;;;;5050173;28;20387;-79
2023/09/03 06:58:17;;;;;;;4.85;4.07;;;20.60;78.10;;;;;;5048330;28;20089;-79
2023/09/03 07:00:43;;;;;;;5.75;4.55;;;20.50;78.30;;;;;;5034059;28;20033;-79
2023/09/03 07:03:09;;;;;;;7.05;4.82;;;20.40;78.40;;;;;;5046916;28;20056;-80
2023/09/03 07:05:35;;;;;;;6.10;4.43;;;20.40;78.50;;;;;;5049709;28;20052;-80
2023/09/03 07:08:01;;;;;;;6.63;4.18;;;20.40;78.70;;;;;;5043795;28;20051;-79
2023/09/03 07:10:27;;;;;;;5.00;3.55;;;20.50;78.70;;;;;;5047991;28;20029;-79
2023/09/03 07:12:52;;;;;;;6.68;3.60;;;20.60;78.70;;;;;;5028940;28;20489;-80
2023/09/03 07:15:18;;;;;;;5.50;4.10;;;20.70;78.40;;;;;;5049418;28;20029;-80
2023/09/03 07:17:43;;;;;;;5.47;4.03;;;20.50;78.40;;;;;;5046200;28;20228;-80
2023/09/03 07:20:11;;;;;;;4.93;3.85;;;20.40;78.60;;;;;;5048483;28;20035;-79
2023/09/03 07:22:36;;;;;;;6.35;4.43;;;20.20;79.00;;;;;;5027088;28;20080;-80
2023/09/03 07:25:02;;;;;;;5.22;3.42;;;20.00;79.40;;;;;;5045994;28;20060;-80
2023/09/03 07:27:28;;;;;;;6.47;4.38;;;19.90;80.00;;;;;;5059431;28;20033;-82
2023/09/03 07:29:54;;;;;;;7.45;4.75;;;19.90;80.50;;;;;;5029589;28;20049;-81
2023/09/03 07:32:21;;;;;;;5.70;4.40;;;20.00;80.70;;;;;;5041258;28;20458;-81
2023/09/03 07:34:46;;;;;;;6.40;5.03;;;20.30;80.20;;;;;;5023995;28;20167;-81
2023/09/03 07:37:12;;;;;;;6.78;4.78;;;20.20;79.50;;;;;;5046045;28;20531;-81
2023/09/03 07:39:38;;;;;;;7.88;5.07;;;20.40;79.20;;;;;;5046759;28;20517;-81
2023/09/03 07:42:04;;;;;;;5.25;3.80;;;20.60;78.50;;;;;;5044101;28;20380;-81
2023/09/03 07:44:29;;;;;;;6.25;3.90;;;20.70;78.30;;;;;;5030025;28;20028;-81
2023/09/03 07:46:55;;;;;;;4.45;3.58;;;20.90;78.10;;;;;;5046864;28;20111;-78
2023/09/03 07:49:20;;;;;;;5.13;3.78;;;21.10;77.50;;;;;;5044747;28;20075;-78
2023/09/03 07:51:46;;;;;;;4.05;3.10;;;21.50;76.50;;;;;;5046602;28;20438;-78
2023/09/03 07:54:15;;;;;;;5.28;3.53;;;22.30;75.10;;;;;;5026694;28;20025;-78
2023/09/03 07:56:41;;;;;;;5.93;4.07;;;22.90;72.70;;;;;;5028957;28;20029;-81
2023/09/03 07:59:07;;;;;;;4.68;3.10;;;23.20;71.00;;;;;;5045872;28;20029;-81
2023/09/03 08:01:32;;;;;;;5.38;3.53;;;23.80;70.00;;;;;;5028352;28;20021;-81
2023/09/03 08:03:58;;;;;;;5.65;3.13;;;24.10;68.10;;;;;;5044915;28;20029;-82
2023/09/03 08:06:23;;;;;;;4.85;3.28;;;24.20;67.40;;;;;;5028223;28;20104;-81
2023/09/03 08:08:53;;;;;;;4.57;3.00;;;24.00;66.80;;;;;;5046107;28;20032;-82
2023/09/03 08:11:20;;;;;;;5.88;3.50;;;24.00;66.50;;;;;;5028658;28;20455;-81
2023/09/03 08:13:50;;;;;;;5.35;3.80;;;24.00;66.40;;;;;;5046860;28;20036;-81
2023/09/03 08:16:16;;;;;;;4.00;3.60;;;24.00;65.80;;;;;;5048378;28;20071;-81
2023/09/03 08:18:41;;;;;;;4.43;3.70;;;24.50;65.30;;;;;;5049051;28;20091;-81
2023/09/03 08:21:07;;;;;;;5.65;3.25;;;25.20;64.00;;;;;;5049923;28;20434;-81
2023/09/03 08:23:33;;;;;;;4.68;3.10;;;25.70;62.90;;;;;;5049911;28;20025;-82
2023/09/03 08:25:58;;;;;;;3.63;2.70;;;25.90;62.10;;;;;;5049231;28;20063;-81
2023/09/03 08:28:24;;;;;;;3.97;2.70;;;26.00;61.10;;;;;;5049915;28;20078;-80
2023/09/03 08:30:49;;;;;;;2.88;2.38;;;26.30;60.20;;;;;;5049590;28;20675;-81
2023/09/03 08:33:15;;;;;;;3.08;2.38;;;26.80;59.70;;;;;;5049954;28;20033;-81
2023/09/03 08:35:41;;;;;;;5.05;3.45;;;26.90;58.60;;;;;;5049565;28;20037;-82
2023/09/03 08:38:06;;;;;;;4.03;2.92;;;26.60;58.30;;;;;;5032287;28;20033;-81
2023/09/03 08:40:36;;;;;;;7.50;3.95;;;26.30;58.80;;;;;;5049967;28;20067;-81
2023/09/03 08:43:05;;;;;;;4.68;3.67;;;25.30;60.20;;;;;;5045985;28;20538;-79
2023/09/03 08:45:32;;;;;;;3.38;2.72;;;24.30;63.00;;;;;;5049169;28;20052;-78
2023/09/03 08:47:58;;;;;;;3.55;2.58;;;23.50;65.60;;;;;;5049398;28;20435;-78
2023/09/03 08:50:24;;;;;;;2.67;2.47;;;23.10;67.60;;;;;;5031386;28;20017;-79
2023/09/03 08:52:52;;;;;;;4.72;3.13;;;22.80;68.50;;;;;;5049406;28;20059;-78
2023/09/03 08:55:18;;;;;;;4.07;3.15;;;22.50;68.90;;;;;;5049538;28;20131;-79
2023/09/03 08:57:44;;;;;;;4.72;3.22;;;22.30;69.70;;;;;;5031923;28;20048;-78
2023/09/03 09:00:14;;;;;;;4.70;3.13;;;22.20;70.20;;;;;;5049967;28;20090;-79
2023/09/03 09:02:42;;;;;;;3.85;2.88;;;22.10;70.50;;;;;;5035420;28;20025;-78
2023/09/03 09:05:09;;;;;;;3.13;2.67;;;22.10;70.80;;;;;;5032230;28;20159;-78
2023/09/03 09:07:35;;;;;;;7.13;4.35;;;22.20;70.80;;;;;;5048575;28;20013;-79
2023/09/03 09:10:08;;;;;;;5.65;3.55;;;22.00;69.90;;;;;;5049611;28;20033;-79
2023/09/03 09:12:42;;;;;;;5.30;3.65;;;21.90;70.60;;;;;;5032146;28;20611;-79
2023/09/03 09:15:08;;;;;;;5.05;3.10;;;21.90;70.30;;;;;;5049104;28;20032;-79
2023/09/03 09:17:41;;;;;;;2.85;2.60;;;22.00;70.40;;;;;;5049000;28;20017;-79
2023/09/03 09:20:07;;;;;;;4.30;3.17;;;22.10;70.60;;;;;;5048911;28;20071;-79
2023/09/03 09:22:47;;;;;;;3.97;2.80;;;22.20;70.00;;;;;;5032997;28;20044;-79
2023/09/03 09:25:23;;;;;;;3.78;2.88;;;22.10;68.20;;;;;;5029253;28;20047;-79
2023/09/03 09:27:51;;;;;;;4.53;2.83;;;22.00;68.20;;;;;;5047703;28;20025;-79
2023/09/03 09:30:19;;;;;;;3.25;2.70;;;22.00;67.80;;;;;;5049606;28;20024;-79
2023/09/03 09:32:46;;;;;;;2.47;2.22;;;22.00;68.10;;;;;;5032785;28;20041;-79
2023/09/03 09:35:23;;;;;;;4.38;3.40;;;22.10;68.40;;;;;;5048940;28;20051;-79
2023/09/03 09:37:49;;;;;;;4.28;3.10;;;22.10;68.10;;;;;;5030939;28;20455;-79
2023/09/03 09:40:28;;;;;;;3.53;2.67;;;22.00;68.60;;;;;;5048458;28;20032;-79
2023/09/03 09:42:56;;;;;;;3.10;2.78;;;22.10;68.60;;;;;;5047947;28;20032;-78
2023/09/03 09:45:22;;;;;;;3.58;2.75;;;22.10;68.30;;;;;;5047606;28;20479;-79
2023/09/03 09:48:04;;;;;;;4.47;2.92;;;22.30;68.30;;;;;;5031692;28;20052;-79
2023/09/03 09:50:39;;;;;;;2.30;2.10;;;22.20;67.20;;;;;;5044670;28;20021;-79
2023/09/03 09:53:05;;;;;;;3.65;2.17;;;22.30;66.80;;;;;;5030156;28;20511;-79
2023/09/03 09:55:32;;;;;;;3.35;2.67;;;22.30;65.90;;;;;;5047163;28;20021;-79
2023/09/03 09:57:58;;;;;;;2.53;2.17;;;22.30;66.10;;;;;;5029479;28;20029;-79
2023/09/03 10:00:37;;;;;;;3.45;2.28;;;22.40;65.90;;;;;;5047936;28;20396;-79
2023/09/03 10:03:05;;;;;;;2.17;1.60;;;22.40;65.00;;;;;;5047391;28;20021;-79
2023/09/03 10:05:30;;;;;;;2.03;1.30;;;22.50;64.80;;;;;;5030369;28;20085;-79
2023/09/03 10:07:57;;;;;;;2.50;1.50;;;22.60;64.50;;;;;;5047519;28;20472;-81
2023/09/03 10:10:22;;;;;;;2.20;1.92;;;22.70;63.50;;;;;;5047678;28;20099;-79
2023/09/03 10:12:48;;;;;;;1.50;1.40;;;22.80;63.70;;;;;;5046906;28;20464;-79
2023/09/03 10:15:14;;;;;;;2.13;1.75;;;22.90;64.00;;;;;;5028301;28;20413;-79
2023/09/03 10:17:43;;;;;;;1.65;1.38;;;22.90;63.20;;;;;;5047008;28;20124;-79
2023/09/03 10:20:14;;;;;;;1.80;1.50;;;23.00;63.40;;;;;;5029379;28;20060;-79
2023/09/03 10:22:41;;;;;;;2.10;1.80;;;23.00;61.60;;;;;;5047537;28;20395;-79
2023/09/03 10:25:13;;;;;;;2.53;1.77;;;23.00;61.50;;;;;;5043908;28;20514;-79
2023/09/03 10:27:45;;;;;;;2.78;2.08;;;22.90;61.90;;;;;;5048743;28;20041;-79
2023/09/03 10:30:14;;;;;;;2.97;2.00;;;23.00;62.40;;;;;;5032057;28;20092;-79
2023/09/03 10:32:41;;;;;;;2.72;2.28;;;23.00;62.00;;;;;;5045632;28;20043;-79
2023/09/03 10:35:11;;;;;;;2.63;2.00;;;23.00;62.50;;;;;;5045656;28;20052;-79
2023/09/03 10:37:41;;;;;;;3.00;2.65;;;23.20;63.00;;;;;;5028081;28;20028;-79
2023/09/03 10:40:24;;;;;;;2.95;2.20;;;23.20;62.90;;;;;;5047379;28;20565;-79
2023/09/03 10:43:10;;;;;;;3.47;2.30;;;23.30;62.70;;;;;;5029104;28;20025;-79
2023/09/03 10:45:36;;;;;;;2.55;2.30;;;23.30;62.70;;;;;;5045364;28;20025;-79
2023/09/03 10:48:04;;;;;;;3.75;2.38;;;23.30;62.70;;;;;;5028513;28;20029;-79
2023/09/03 10:50:42;;;;;;;3.40;2.40;;;23.30;62.60;;;;;;5047869;28;20028;-80
2023/09/03 10:53:09;;;;;;;2.97;2.08;;;23.40;62.70;;;;;;5030762;28;20110;-80
2023/09/03 10:55:34;;;;;;;2.97;2.30;;;23.40;62.40;;;;;;5030358;28;20091;-80
2023/09/03 10:58:16;;;;;;;3.10;1.92;;;23.50;62.60;;;;;;5028409;28;20770;-81
2023/09/03 11:01:18;;;;;;;2.08;1.73;;;23.60;62.30;;;;;;5064304;28;20609;-81
2023/09/03 11:03:46;;;;;;;2.13;1.50;;;23.60;62.20;;;;;;5044654;28;20927;-81
2023/09/03 11:06:21;;;;;;;2.20;1.30;;;23.60;61.70;;;;;;5048108;28;20081;-81
2023/09/03 11:09:10;;;;;;;1.40;1.00;;;23.80;60.00;;;;;;5063081;28;20034;-81
2023/09/03 11:11:38;;;;;;;1.65;1.02;;;23.60;58.90;;;;;;5034066;28;20381;-81
2023/09/03 11:14:07;;;;;;;1.85;0.90;;;23.70;60.00;;;;;;5035278;28;20050;-81
2023/09/03 11:16:34;;;;;;;0.80;0.80;;;23.90;59.20;;;;;;5049131;28;20025;-80
2023/09/03 11:19:04;;;;;;;1.00;0.90;;;24.00;58.70;;;;;;5046434;28;20056;-81
2023/09/03 11:21:30;;;;;;;1.23;0.95;;;24.10;58.30;;;;;;5025420;28;20021;-81
2023/09/03 11:23:59;;;;;;;1.10;1.00;;;24.20;58.40;;;;;;5047238;28;20033;-82
2023/09/03 11:26:24;;;;;;;1.35;1.13;;;24.10;57.10;;;;;;5029225;28;20025;-81
2023/09/03 11:28:50;;;;;;;1.17;0.90;;;23.90;55.70;;;;;;5045404;28;20035;-81
2023/09/03 11:31:16;;;;;;;2.10;1.00;;;23.90;56.20;;;;;;5046393;28;20581;-80
2023/09/03 11:33:41;;;;;;;1.45;1.20;;;24.00;56.80;;;;;;5029139;28;20035;-81
2023/09/03 11:36:07;;;;;;;1.52;1.10;;;24.00;56.10;;;;;;5028525;28;20064;-81
2023/09/03 11:38:34;;;;;;;1.10;1.00;;;24.00;56.30;;;;;;5045355;28;20029;-81
2023/09/03 11:41:00;;;;;;;1.85;1.00;;;24.10;56.70;;;;;;5046940;28;20025;-81
2023/09/03 11:43:30;;;;;;;0.90;0.90;;;24.00;56.60;;;;;;5030497;28;20402;-81
2023/09/03 11:45:57;;;;;;;0.90;0.90;;;24.00;56.70;;;;;;5031011;28;20056;-81
2023/09/03 11:48:27;;;;;;;1.23;1.13;;;24.20;56.90;;;;;;5043361;28;20234;-81
2023/09/03 11:50:53;;;;;;;1.48;1.05;;;24.40;56.40;;;;;;5049197;28;20048;-81
2023/09/03 11:53:20;;;;;;;1.77;1.33;;;24.50;56.70;;;;;;5033054;28;20060;-81
2023/09/03 11:55:53;;;;;;;1.20;1.10;;;24.60;56.70;;;;;;5050909;28;20756;-81
2023/09/03 11:58:21;;;;;;;0.88;0.88;;;24.60;56.80;;;;;;5048371;28;20038;-81
2023/09/03 12:00:47;;;;;;;1.85;1.20;;;24.60;56.60;;;;;;5044047;28;20024;-81
2023/09/03 12:03:14;;;;;;;0.90;0.90;;;24.60;56.10;;;;;;5049520;28;20076;-81
2023/09/03 12:05:39;;;;;;;1.15;1.00;;;24.80;56.00;;;;;;5029430;28;20036;-81
2023/09/03 12:08:06;;;;;;;2.03;1.30;;;24.60;54.30;;;;;;5050340;28;20029;-81
2023/09/03 12:10:32;;;;;;;1.10;1.00;;;24.50;54.00;;;;;;5049169;28;20135;-81
2023/09/03 12:13:03;;;;;;;1.00;0.80;;;24.50;54.80;;;;;;5045400;28;20781;-81
2023/09/03 12:15:30;;;;;;;1.00;0.90;;;24.50;55.00;;;;;;5049883;28;20373;-81
2023/09/03 12:18:09;;;;;;;1.27;1.02;;;24.60;55.30;;;;;;5048480;28;20456;-81
2023/09/03 12:20:40;;;;;;;1.25;1.00;;;24.80;55.20;;;;;;5048450;28;20025;-81
2023/09/03 12:23:14;;;;;;;0.80;0.80;;;24.90;55.00;;;;;;5029786;28;20458;-81
2023/09/03 12:25:40;;;;;;;1.40;1.20;;;24.80;54.40;;;;;;5047452;28;20115;-81
2023/09/03 12:28:07;;;;;;;1.50;0.95;;;24.60;53.20;;;;;;5032261;28;20086;-81
2023/09/03 12:30:55;;;;;;;1.33;1.23;;;24.50;54.40;;;;;;5048662;28;20021;-81
2023/09/03 12:33:25;;;;;;;1.33;0.98;;;24.50;54.60;;;;;;5032048;28;20121;-81
2023/09/03 12:36:10;;;;;;;1.92;1.30;;;24.60;54.90;;;;;;5048007;28;20028;-81
2023/09/03 12:39:00;;;;;;;1.55;0.90;;;24.70;55.00;;;;;;5057808;28;20522;-81
2023/09/03 12:41:28;;;;;;;1.48;1.08;;;24.70;55.10;;;;;;5046313;28;20150;-81
2023/09/03 12:44:03;;;;;;;1.83;0.95;;;24.70;55.40;;;;;;5046814;28;20114;-81
2023/09/03 12:46:29;;;;;;;1.75;1.10;;;24.50;55.60;;;;;;5038285;28;20502;-81
2023/09/03 12:48:54;;;;;;;2.05;1.23;;;24.30;56.00;;;;;;5047396;28;20021;-81
2023/09/03 12:51:20;;;;;;;1.73;1.08;;;24.30;56.10;;;;;;5048202;28;20036;-81
2023/09/03 12:53:47;;;;;;;1.20;1.00;;;24.20;56.10;;;;;;5046901;28;20618;-81